createdAt,value
2019-04-10T00:03:40.254Z,18.07
2019-04-10T00:08:40.607Z,19.23
2019-04-10T00:13:42.907Z,19.63
2019-04-10T00:18:44.987Z,17.33
2019-04-10T00:23:47.064Z,17.87
2019-04-10T00:28:49.727Z,20.73
2019-04-10T00:33:51.490Z,18.70
2019-04-10T00:38:53.861Z,19.90
2019-04-10T00:43:55.506Z,17.97
2019-04-10T00:48:57.002Z,22.67
2019-04-10T00:53:59.349Z,16.80
2019-04-10T00:59:01.742Z,20.83
2019-04-10T01:04:04.323Z,19.57
2019-04-10T01:09:06.827Z,16.73
2019-04-10T01:14:09.552Z,18.77
2019-04-10T01:19:12.087Z,22.97
2019-04-10T01:24:13.652Z,17.40
2019-04-10T01:29:15.910Z,20.20
2019-04-10T01:34:17.834Z,21.50
2019-04-10T01:39:19.613Z,20.50
2019-04-10T01:44:21.145Z,22.30
2019-04-10T01:49:23.666Z,21.87
2019-04-10T01:54:25.454Z,21.80
2019-04-10T01:59:26.986Z,21.13
2019-04-10T02:04:28.920Z,19.37
2019-04-10T02:09:31.741Z,20.83
2019-04-10T02:14:33.394Z,19.97
2019-04-10T02:19:34.953Z,19.00
2019-04-10T02:24:36.480Z,20.60
2019-04-10T02:29:37.985Z,19.67
2019-04-10T02:34:41.322Z,21.77
2019-04-10T02:39:47.783Z,18.40
2019-04-10T02:44:48.081Z,17.33
2019-04-10T02:49:49.916Z,18.53
2019-04-10T02:54:51.451Z,16.87
2019-04-10T02:59:53.852Z,16.13
2019-04-10T03:04:57.350Z,16.67
2019-04-10T03:10:11.316Z,15.40
2019-04-10T03:15:03.465Z,15.63
2019-04-10T03:20:05.878Z,16.27
2019-04-10T03:25:08.752Z,13.53
2019-04-10T03:30:12.786Z,12.37
2019-04-10T03:35:14.544Z,14.70
2019-04-10T03:40:16.163Z,12.50
2019-04-10T03:45:17.710Z,13.70
2019-04-10T03:50:19.624Z,11.93
2019-04-10T03:55:21.161Z,14.70
2019-04-10T04:00:23.159Z,14.33
2019-04-10T04:05:24.662Z,11.23
2019-04-10T04:10:26.813Z,11.77
2019-04-10T04:15:28.377Z,13.63
2019-04-10T04:20:30.704Z,11.13
2019-04-10T04:25:32.660Z,12.10
2019-04-10T04:30:34.179Z,10.30
2019-04-10T04:35:36.681Z,12.03
2019-04-10T04:40:38.284Z,9.07
2019-04-10T04:45:40.248Z,12.13
2019-04-10T04:50:42.271Z,8.17
2019-04-10T04:55:44.923Z,10.73
2019-04-10T05:00:46.665Z,10.53
2019-04-10T05:05:49.736Z,9.13
2019-04-10T05:10:51.517Z,8.80
2019-04-10T05:15:53.372Z,9.20
2019-04-10T05:20:54.967Z,11.53
2019-04-10T05:25:56.491Z,13.97
2019-04-10T05:30:58.939Z,13.27
2019-04-10T05:36:01.324Z,10.07
2019-04-10T05:41:03.237Z,12.47
2019-04-10T05:46:04.991Z,11.57
2019-04-10T05:51:08.010Z,8.13
2019-04-10T05:56:10.124Z,9.63
2019-04-10T06:01:11.774Z,14.20
2019-04-10T06:06:14.457Z,10.30
2019-04-10T06:11:17.131Z,11.33
2019-04-10T06:16:19.550Z,9.17
2019-04-10T06:21:21.341Z,9.20
2019-04-10T06:26:23.721Z,10.87
2019-04-10T06:31:25.544Z,9.73
2019-04-10T06:36:27.486Z,8.50
2019-04-10T06:41:29.105Z,9.43
2019-04-10T06:46:30.812Z,7.70
2019-04-10T06:51:33.437Z,14.03
2019-04-10T06:56:35.660Z,9.43
2019-04-10T07:01:45.795Z,9.97
2019-04-10T07:06:53.974Z,11.23
2019-04-10T07:11:44.947Z,8.93
2019-04-10T07:16:46.587Z,7.07
2019-04-10T07:21:49.159Z,6.57
2019-04-10T07:26:51.035Z,10.07
2019-04-10T07:31:52.937Z,8.43
2019-04-10T07:36:54.639Z,7.03
2019-04-10T07:41:56.136Z,10.40
2019-04-10T07:46:59.102Z,10.93
2019-04-10T07:52:02.475Z,7.93
2019-04-10T07:57:04.647Z,9.00
2019-04-10T08:02:08.466Z,9.07
2019-04-10T08:07:09.592Z,13.63
2019-04-10T08:12:11.365Z,10.17
2019-04-10T08:17:14.348Z,8.60
2019-04-10T08:22:15.879Z,13.40
2019-04-10T08:27:17.414Z,8.03
2019-04-10T08:32:18.942Z,13.90
2019-04-10T08:37:20.711Z,9.77
2019-04-10T08:42:22.503Z,9.70
2019-04-10T08:47:24.879Z,8.37
2019-04-10T08:52:26.566Z,12.13
2019-04-10T08:57:28.070Z,10.13
2019-04-10T09:02:30.398Z,11.13
2019-04-10T09:07:32.601Z,10.53
2019-04-10T09:12:34.164Z,12.40
2019-04-10T09:17:35.686Z,12.20
2019-04-10T09:22:57.940Z,13.33
2019-04-10T09:27:42.738Z,10.93
2019-04-10T09:32:44.453Z,8.63
2019-04-10T09:37:46.282Z,9.73
2019-04-10T09:42:48.084Z,10.17
2019-04-10T09:47:50.294Z,17.37
2019-04-10T09:52:52.362Z,12.43
2019-04-10T09:57:54.026Z,9.93
2019-04-10T10:03:00.117Z,11.27
2019-04-10T10:08:02.218Z,11.77
2019-04-10T10:13:03.931Z,7.67
2019-04-10T10:18:05.846Z,9.30
2019-04-10T10:23:07.562Z,9.63
2019-04-10T10:28:09.502Z,9.10
2019-04-10T10:33:11.033Z,9.80
2019-04-10T10:38:12.759Z,11.53
2019-04-10T10:43:14.413Z,11.13
2019-04-10T10:48:16.408Z,11.13
2019-04-10T10:53:18.313Z,11.53
2019-04-10T10:58:19.820Z,14.40
2019-04-10T11:03:22.441Z,7.70
2019-04-10T11:08:24.534Z,8.57
2019-04-10T11:13:26.584Z,9.07
2019-04-10T11:18:28.654Z,10.40
2019-04-10T11:23:30.582Z,12.50
2019-04-10T11:28:33.805Z,9.70
2019-04-10T11:33:37.318Z,8.53
2019-04-10T11:38:39.860Z,10.07
2019-04-10T11:43:41.737Z,10.27
2019-04-10T11:48:45.474Z,8.93
2019-04-10T11:53:48.698Z,9.30
2019-04-10T11:58:55.872Z,7.22
2019-04-10T12:03:56.601Z,9.80
2019-04-10T12:09:19.462Z,9.10
2019-04-10T12:14:01.310Z,11.68
2019-04-10T12:19:02.867Z,13.70
2019-04-10T12:24:05.365Z,8.85
2019-04-10T12:29:07.325Z,6.17
2019-04-10T12:34:09.159Z,7.10
2019-04-10T12:39:10.744Z,7.33
2019-04-10T12:44:12.261Z,10.45
2019-04-10T12:49:15.009Z,6.92
2019-04-10T12:54:17.401Z,9.80
2019-04-10T12:59:19.439Z,6.40
2019-04-10T13:04:22.265Z,7.85
2019-04-10T13:09:24.248Z,10.43
2019-04-10T13:14:26.481Z,9.58
2019-04-10T13:19:29.157Z,21.65
2019-04-10T13:24:30.792Z,9.33
2019-04-10T13:29:32.322Z,17.40
2019-04-10T13:34:33.860Z,10.70
2019-04-10T13:39:35.435Z,10.18
2019-04-10T13:44:38.387Z,11.03
2019-04-10T13:49:40.092Z,8.33
2019-04-10T13:54:41.554Z,9.08
2019-04-10T13:59:43.132Z,7.10
2019-04-10T14:04:45.228Z,7.50
2019-04-10T14:09:51.387Z,11.68
2019-04-10T14:14:51.091Z,11.50
2019-04-10T14:19:54.034Z,13.00
2019-04-10T14:24:55.799Z,9.75
2019-04-10T14:29:57.332Z,7.47
2019-04-10T14:34:58.917Z,10.03
2019-04-10T14:40:00.483Z,9.40
2019-04-10T14:45:03.440Z,7.40
2019-04-10T14:50:05.394Z,10.03
2019-04-10T14:55:06.911Z,7.23
2019-04-10T15:00:08.604Z,11.70
2019-04-10T15:05:10.416Z,13.30
2019-04-10T15:10:11.911Z,10.43
2019-04-10T15:15:14.311Z,9.47
2019-04-10T15:20:16.051Z,9.60
2019-04-10T15:25:17.592Z,12.07
2019-04-10T15:30:20.220Z,11.67
2019-04-10T15:35:21.795Z,14.50
2019-04-10T15:40:25.765Z,7.90
2019-04-10T15:45:28.106Z,12.40
2019-04-10T15:50:30.503Z,10.93
2019-04-10T15:55:32.278Z,9.83
2019-04-10T16:00:34.794Z,5.97
2019-04-10T16:05:37.627Z,9.37
2019-04-10T16:10:39.355Z,6.33
2019-04-10T16:15:40.999Z,6.80
2019-04-10T16:20:43.210Z,10.20
2019-04-10T16:25:44.947Z,5.43
2019-04-10T16:30:46.684Z,7.70
2019-04-10T16:35:48.350Z,6.27
2019-04-10T16:40:50.543Z,4.27
2019-04-10T16:45:53.010Z,5.80
2019-04-10T16:50:54.613Z,4.67
2019-04-10T16:55:56.876Z,4.03
2019-04-10T17:00:58.670Z,6.43
2019-04-10T17:06:00.250Z,6.07
2019-04-10T17:11:02.933Z,6.50
2019-04-10T17:16:07.319Z,5.10
2019-04-10T17:21:09.067Z,7.37
2019-04-10T17:26:12.831Z,5.73
2019-04-10T17:31:14.587Z,3.70
2019-04-10T17:36:16.896Z,4.27
2019-04-10T17:41:19.670Z,5.13
2019-04-10T17:46:27.494Z,4.33
2019-04-10T17:51:30.326Z,7.47
2019-04-10T17:56:32.598Z,7.10
2019-04-10T18:01:39.224Z,5.17
2019-04-10T18:06:44.034Z,6.07
2019-04-10T18:11:45.642Z,8.10
2019-04-10T18:16:48.409Z,6.73
2019-04-10T18:21:50.000Z,6.43
2019-04-10T18:26:53.663Z,5.23
2019-04-10T18:31:57.328Z,7.93
2019-04-10T18:36:58.661Z,5.30
2019-04-10T18:42:01.299Z,10.20
2019-04-10T18:47:04.879Z,6.17
2019-04-10T18:52:07.456Z,5.87
2019-04-10T18:57:09.428Z,5.23
2019-04-10T19:02:11.741Z,6.43
2019-04-10T19:07:13.753Z,6.60
2019-04-10T19:12:15.386Z,7.57
2019-04-10T19:17:17.142Z,5.13
2019-04-10T19:22:20.197Z,7.03
2019-04-10T19:27:22.560Z,5.77
2019-04-10T19:32:24.696Z,6.47
2019-04-10T19:37:26.736Z,6.53
2019-04-10T19:42:29.276Z,9.70
2019-04-10T19:47:31.192Z,5.83
2019-04-10T19:52:33.461Z,9.50
2019-04-10T19:57:35.333Z,4.33
2019-04-10T20:02:37.266Z,13.47
2019-04-10T20:07:39.224Z,5.30
2019-04-10T20:12:42.510Z,6.53
2019-04-10T20:17:44.598Z,8.43
2019-04-10T20:22:46.322Z,8.10
2019-04-10T20:27:48.004Z,6.83
2019-04-10T20:32:52.348Z,6.13
2019-04-10T20:37:55.325Z,7.70
2019-04-10T20:42:56.971Z,5.57
2019-04-10T20:47:58.578Z,8.53
2019-04-10T20:53:00.088Z,5.10
2019-04-10T20:58:04.465Z,6.70
2019-04-10T21:03:05.460Z,7.63
2019-04-10T21:08:07.086Z,7.93
2019-04-10T21:13:08.681Z,9.33
2019-04-10T21:18:11.060Z,8.53
2019-04-10T21:23:13.123Z,8.87
2019-04-10T21:28:14.781Z,8.27
2019-04-10T21:33:16.350Z,6.53
2019-04-10T21:38:17.875Z,10.10
2019-04-10T21:43:20.304Z,7.50
2019-04-10T21:48:22.891Z,8.27
2019-04-10T21:53:24.412Z,10.17
2019-04-10T21:58:26.179Z,9.80
2019-04-10T22:03:27.686Z,10.67
2019-04-10T22:08:29.542Z,9.00
2019-04-10T22:13:32.241Z,9.83
2019-04-10T22:18:33.981Z,9.90
2019-04-10T22:23:36.387Z,9.53
2019-04-10T22:28:37.973Z,10.47
2019-04-10T22:33:40.497Z,13.53
2019-04-10T22:38:42.097Z,7.83
2019-04-10T22:43:44.862Z,10.97
2019-04-10T22:48:47.698Z,12.63
2019-04-10T22:53:50.052Z,10.40
2019-04-10T22:58:51.716Z,11.20
2019-04-10T23:03:53.210Z,10.07
2019-04-10T23:08:55.832Z,10.40
2019-04-10T23:13:58.507Z,11.00
2019-04-10T23:19:01.573Z,9.90
2019-04-10T23:24:04.031Z,13.03
2019-04-10T23:29:06.258Z,11.17
2019-04-10T23:34:08.383Z,7.90
2019-04-10T23:39:10.434Z,10.07
2019-04-10T23:44:13.010Z,10.20
2019-04-10T23:49:14.695Z,11.80
2019-04-10T23:54:17.235Z,10.63
2019-04-10T23:59:20.441Z,12.23
